Terminal Aerodrome Forecast
Issued by NWS

Home | Current Version | Previous Version | Text Only | Print | Product List | Glossary On
Versions: 1 2 3 4 5 6 7 8 9 10 11 12 13
664
FTUS42 KMLB 081739
TAFSUA
TAF
KSUA 081739Z 0818/0918 26012G18KT P6SM SCT050 SCT300
     FM090000 25014G20KT P6SM VCSH BKN040
     FM090900 28016G22KT P6SM BKN050
     FM091600 27019G26KT P6SM BKN050=

USA.gov is the U.S. government's official web portal to all federal, state and local government web resources and services.